createdAt,value
2023-02-04T16:10:05.896Z,100.00
2023-02-04T16:13:11.137Z,100.00
2023-02-04T16:16:16.413Z,100.00
2023-02-04T16:19:21.579Z,98.67
2023-02-04T16:22:24.488Z,99.16
2023-02-04T16:25:30.711Z,97.96
2023-02-04T16:28:35.021Z,95.72
2023-02-04T16:31:41.926Z,91.43
2023-02-04T16:34:47.755Z,88.18
2023-02-04T16:37:50.631Z,85.01
2023-02-04T16:40:57.227Z,83.24
2023-02-04T16:44:02.350Z,81.14
2023-02-04T16:47:07.120Z,79.99
2023-02-04T16:50:13.074Z,78.94
2023-02-04T16:53:16.750Z,78.22
2023-02-04T16:56:20.755Z,77.36
2023-02-04T16:59:24.416Z,76.93
2023-02-04T17:02:29.805Z,76.15
2023-02-04T17:05:33.338Z,76.14
2023-02-04T17:08:37.900Z,76.27
2023-02-04T17:11:40.730Z,76.01
2023-02-04T17:14:44.712Z,75.61
2023-02-04T17:17:47.577Z,75.91
2023-02-04T17:20:52.997Z,75.44
2023-02-04T17:24:04.251Z,74.38
2023-02-04T17:27:10.478Z,74.06
2023-02-04T17:30:14.064Z,74.57
2023-02-04T17:33:17.633Z,74.57
2023-02-04T17:36:20.349Z,74.02
2023-02-04T17:39:26.115Z,73.76
2023-02-04T17:42:29.128Z,73.42
2023-02-04T17:45:33.571Z,73.08
2023-02-04T17:48:37.247Z,72.67
2023-02-04T17:51:42.097Z,72.75
2023-02-04T17:54:44.944Z,73.43
2023-02-04T17:57:49.043Z,73.05
2023-02-04T18:00:53.413Z,73.73
2023-02-04T18:03:58.617Z,73.19
2023-02-04T18:07:05.794Z,73.01
2023-02-04T18:10:49.844Z,72.33
2023-02-04T18:13:55.210Z,71.69
2023-02-04T18:17:06.585Z,71.77
2023-02-04T18:20:18.876Z,71.67
2023-02-04T18:23:22.711Z,71.65
2023-02-04T18:26:26.336Z,71.24
2023-02-04T18:29:41.508Z,71.31
2023-02-04T18:32:44.420Z,71.16
2023-02-04T18:35:52.153Z,71.37
2023-02-04T18:38:57.163Z,71.16
2023-02-04T18:42:00.021Z,71.12
2023-02-04T18:45:26.172Z,71.44
2023-02-04T18:48:28.845Z,71.22
2023-02-04T18:51:35.819Z,71.32
2023-02-04T18:54:39.151Z,71.73
2023-02-04T18:57:42.346Z,72.25
2023-02-04T19:00:53.021Z,73.51
2023-02-04T19:04:00.300Z,72.50
2023-02-04T19:07:02.947Z,71.79
2023-02-04T19:10:41.125Z,71.44
2023-02-04T19:13:44.231Z,71.05
2023-02-04T19:16:51.862Z,70.83
2023-02-04T19:20:06.420Z,70.60
2023-02-04T19:23:21.346Z,70.58
2023-02-04T19:26:30.227Z,70.59
2023-02-04T19:29:39.256Z,70.04
2023-02-04T19:32:54.133Z,70.32
2023-02-04T19:35:57.063Z,70.24
2023-02-04T19:39:03.774Z,70.76
2023-02-04T19:42:36.098Z,70.51
2023-02-04T19:45:41.481Z,70.35
2023-02-04T19:48:44.927Z,70.62
2023-02-04T19:51:52.672Z,70.76
2023-02-04T19:55:13.022Z,70.92
2023-02-04T19:58:22.584Z,71.33
2023-02-04T20:01:27.573Z,71.31
2023-02-04T20:04:39.373Z,70.79
2023-02-04T20:07:43.732Z,71.08
2023-02-04T20:10:47.052Z,70.88
2023-02-04T20:13:53.087Z,71.04
2023-02-04T20:17:03.833Z,71.74
2023-02-04T20:20:22.299Z,71.09
2023-02-04T20:23:33.942Z,71.40
2023-02-04T20:26:40.573Z,71.53
2023-02-04T20:29:44.227Z,71.21
2023-02-04T20:35:38.651Z,71.57
2023-02-04T20:38:41.920Z,71.31
2023-02-04T20:41:47.061Z,71.45
2023-02-04T20:44:51.552Z,71.62
2023-02-04T20:48:03.763Z,71.76
2023-02-04T20:51:25.018Z,72.02
2023-02-04T20:54:51.482Z,71.87
2023-02-04T20:58:20.869Z,72.67
2023-02-04T21:01:35.179Z,73.11
2023-02-04T21:04:45.529Z,74.25
2023-02-04T21:07:50.656Z,74.69
2023-02-04T21:10:57.920Z,74.52
2023-02-04T21:14:01.517Z,74.59
2023-02-04T21:17:06.907Z,74.26
2023-02-04T21:20:11.013Z,73.62
2023-02-04T21:23:15.407Z,72.79
2023-02-04T21:26:19.544Z,73.16
2023-02-04T21:29:24.841Z,72.30
2023-02-04T21:32:31.987Z,72.17
2023-02-04T21:35:35.594Z,71.75
2023-02-04T21:38:43.444Z,70.76
2023-02-04T21:42:10.138Z,71.24
2023-02-04T21:45:17.729Z,70.79
2023-02-04T21:48:21.786Z,71.32
2023-02-04T21:51:28.401Z,71.20
2023-02-04T21:54:34.959Z,70.99
2023-02-04T21:57:38.717Z,71.05
2023-02-04T22:00:43.430Z,70.50
2023-02-04T22:03:46.537Z,69.47
2023-02-04T22:06:51.138Z,69.51
2023-02-04T22:09:54.539Z,69.82
2023-02-04T22:12:59.468Z,69.51
2023-02-04T22:16:02.541Z,68.99
2023-02-04T22:19:06.657Z,69.13
2023-02-04T22:22:09.856Z,69.56
2023-02-04T22:25:16.513Z,69.58
2023-02-04T22:28:21.413Z,69.50
2023-02-04T22:31:24.586Z,68.84
2023-02-04T22:34:30.827Z,68.99
2023-02-04T22:37:34.920Z,69.06
2023-02-04T22:40:38.726Z,69.21
2023-02-04T22:43:43.962Z,68.99
2023-02-04T22:46:50.649Z,69.16
2023-02-04T22:49:54.696Z,69.64
2023-02-04T22:52:57.369Z,69.83
2023-02-04T22:56:00.060Z,70.03
2023-02-04T22:59:02.920Z,70.49
2023-02-04T23:02:05.692Z,70.83
2023-02-04T23:05:09.280Z,70.28
2023-02-04T23:08:11.852Z,71.01
2023-02-04T23:11:16.954Z,71.43
2023-02-04T23:14:19.538Z,71.63
2023-02-04T23:17:22.149Z,71.87
2023-02-04T23:20:24.761Z,72.80
2023-02-04T23:23:28.887Z,72.72
2023-02-04T23:26:33.206Z,72.67
2023-02-04T23:29:35.888Z,72.71
2023-02-04T23:32:39.081Z,72.26
2023-02-04T23:35:41.722Z,71.38
2023-02-04T23:38:45.369Z,71.00
2023-02-04T23:41:51.201Z,71.13
2023-02-04T23:44:54.599Z,70.52
2023-02-04T23:47:57.235Z,70.73
2023-02-04T23:51:02.819Z,69.88
2023-02-04T23:54:05.680Z,70.11
2023-02-04T23:57:11.406Z,69.62
